SULAYMANIYAH INTERNATIONAL AIRPORT
  • SulyAir
  • SulyAir
1 1
Arrival

ArrivalsMore >>

Departure

DeparturesMore >>

TAF

TAF ORSU 111100Z 1112/1212 24013KT 9999 FEW045 SCT080
BECMG 1116/1118 31006KT CAVOK
BECMG 1207/1209 19010KT 9999 FEW045 SCT200=

METARs

METAR ORSU 111400Z 24010KT 9999 SCT045 BKN080 31/00 Q1012=